sensor_id;sensor_type;location;lat;lon;timestamp;temperature;humidity
4090;DHT22;2059;48.538;12.146;2023-03-01T00:03:57;4.20;90.90
4090;DHT22;2059;48.538;12.146;2023-03-01T00:08:59;4.10;91.20
4090;DHT22;2059;48.538;12.146;2023-03-01T00:14:02;4.10;91.20
4090;DHT22;2059;48.538;12.146;2023-03-01T00:19:09;4.20;91.20
4090;DHT22;2059;48.538;12.146;2023-03-01T00:24:12;4.20;90.90
4090;DHT22;2059;48.538;12.146;2023-03-01T00:29:15;3.90;91.20
4090;DHT22;2059;48.538;12.146;2023-03-01T00:34:17;4.10;91.20
4090;DHT22;2059;48.538;12.146;2023-03-01T00:39:19;4.00;91.10
4090;DHT22;2059;48.538;12.146;2023-03-01T00:44:22;4.10;91.20
4090;DHT22;2059;48.538;12.146;2023-03-01T00:49:24;3.90;91.20
4090;DHT22;2059;48.538;12.146;2023-03-01T00:54:28;3.90;91.30
4090;DHT22;2059;48.538;12.146;2023-03-01T00:59:31;3.80;91.20
4090;DHT22;2059;48.538;12.146;2023-03-01T01:04:33;3.50;91.50
4090;DHT22;2059;48.538;12.146;2023-03-01T01:09:35;3.30;91.80
4090;DHT22;2059;48.538;12.146;2023-03-01T01:14:38;3.20;92.10
4090;DHT22;2059;48.538;12.146;2023-03-01T01:19:40;3.10;92.10
4090;DHT22;2059;48.538;12.146;2023-03-01T01:24:42;3.10;92.60
4090;DHT22;2059;48.538;12.146;2023-03-01T01:29:45;2.90;92.50
4090;DHT22;2059;48.538;12.146;2023-03-01T01:34:47;2.90;92.50
4090;DHT22;2059;48.538;12.146;2023-03-01T01:39:49;3.00;92.50
4090;DHT22;2059;48.538;12.146;2023-03-01T01:45:27;2.90;92.50
4090;DHT22;2059;48.538;12.146;2023-03-01T01:50:29;2.80;92.50
4090;DHT22;2059;48.538;12.146;2023-03-01T01:55:41;2.60;92.80
4090;DHT22;2059;48.538;12.146;2023-03-01T02:00:45;2.70;92.70
4090;DHT22;2059;48.538;12.146;2023-03-01T02:05:50;2.60;92.80
4090;DHT22;2059;48.538;12.146;2023-03-01T02:10:55;2.60;92.70
4090;DHT22;2059;48.538;12.146;2023-03-01T02:15:59;2.60;92.60
4090;DHT22;2059;48.538;12.146;2023-03-01T02:21:12;2.60;92.80
4090;DHT22;2059;48.538;12.146;2023-03-01T02:26:25;2.40;92.70
4090;DHT22;2059;48.538;12.146;2023-03-01T02:31:29;2.40;92.90
4090;DHT22;2059;48.538;12.146;2023-03-01T02:36:46;2.50;92.70
4090;DHT22;2059;48.538;12.146;2023-03-01T02:41:51;2.20;93.00
4090;DHT22;2059;48.538;12.146;2023-03-01T02:46:56;2.10;93.00
4090;DHT22;2059;48.538;12.146;2023-03-01T02:52:22;2.20;92.90
4090;DHT22;2059;48.538;12.146;2023-03-01T02:57:27;2.10;93.00
4090;DHT22;2059;48.538;12.146;2023-03-01T03:02:31;2.10;92.90
4090;DHT22;2059;48.538;12.146;2023-03-01T03:07:39;2.00;93.10
4090;DHT22;2059;48.538;12.146;2023-03-01T03:12:42;2.00;93.00
4090;DHT22;2059;48.538;12.146;2023-03-01T03:17:45;2.00;93.00
4090;DHT22;2059;48.538;12.146;2023-03-01T03:22:50;1.90;93.10
4090;DHT22;2059;48.538;12.146;2023-03-01T03:27:53;1.90;93.30
4090;DHT22;2059;48.538;12.146;2023-03-01T03:32:59;1.80;93.50
4090;DHT22;2059;48.538;12.146;2023-03-01T03:38:05;1.90;93.40
4090;DHT22;2059;48.538;12.146;2023-03-01T03:43:12;1.80;93.50
4090;DHT22;2059;48.538;12.146;2023-03-01T03:48:16;1.80;93.50
4090;DHT22;2059;48.538;12.146;2023-03-01T03:53:18;1.80;93.50
4090;DHT22;2059;48.538;12.146;2023-03-01T03:58:22;1.80;93.70
4090;DHT22;2059;48.538;12.146;2023-03-01T04:03:27;1.70;93.70
4090;DHT22;2059;48.538;12.146;2023-03-01T04:08:29;1.60;93.70
4090;DHT22;2059;48.538;12.146;2023-03-01T04:13:30;1.60;93.70
4090;DHT22;2059;48.538;12.146;2023-03-01T04:18:34;1.60;93.80
4090;DHT22;2059;48.538;12.146;2023-03-01T04:23:35;1.40;93.90
4090;DHT22;2059;48.538;12.146;2023-03-01T04:28:39;1.30;94.30
4090;DHT22;2059;48.538;12.146;2023-03-01T04:33:46;1.50;94.00
4090;DHT22;2059;48.538;12.146;2023-03-01T04:38:48;1.50;93.90
4090;DHT22;2059;48.538;12.146;2023-03-01T04:43:50;1.50;93.90
4090;DHT22;2059;48.538;12.146;2023-03-01T04:48:53;1.50;93.80
4090;DHT22;2059;48.538;12.146;2023-03-01T04:53:55;1.30;94.00
4090;DHT22;2059;48.538;12.146;2023-03-01T04:58:57;1.20;94.10
4090;DHT22;2059;48.538;12.146;2023-03-01T05:04:00;1.30;94.30
4090;DHT22;2059;48.538;12.146;2023-03-01T05:09:03;1.30;94.30
4090;DHT22;2059;48.538;12.146;2023-03-01T05:14:06;1.40;94.50
4090;DHT22;2059;48.538;12.146;2023-03-01T05:19:09;1.40;94.20
4090;DHT22;2059;48.538;12.146;2023-03-01T05:24:15;1.10;94.60
4090;DHT22;2059;48.538;12.146;2023-03-01T05:29:17;0.90;94.90
4090;DHT22;2059;48.538;12.146;2023-03-01T05:34:28;1.20;94.70
4090;DHT22;2059;48.538;12.146;2023-03-01T05:39:30;1.00;95.00
4090;DHT22;2059;48.538;12.146;2023-03-01T05:44:32;1.40;94.50
4090;DHT22;2059;48.538;12.146;2023-03-01T05:49:35;1.30;94.40
4090;DHT22;2059;48.538;12.146;2023-03-01T05:54:37;1.30;94.40
4090;DHT22;2059;48.538;12.146;2023-03-01T05:59:39;1.10;94.80
4090;DHT22;2059;48.538;12.146;2023-03-01T06:04:42;1.20;94.70
4090;DHT22;2059;48.538;12.146;2023-03-01T06:09:44;1.10;94.90
4090;DHT22;2059;48.538;12.146;2023-03-01T06:14:46;1.10;94.90
4090;DHT22;2059;48.538;12.146;2023-03-01T06:19:50;1.00;95.00
4090;DHT22;2059;48.538;12.146;2023-03-01T06:24:51;1.10;95.10
4090;DHT22;2059;48.538;12.146;2023-03-01T06:29:53;1.10;95.20
4090;DHT22;2059;48.538;12.146;2023-03-01T06:34:56;1.30;94.90
4090;DHT22;2059;48.538;12.146;2023-03-01T06:39:59;1.40;94.80
4090;DHT22;2059;48.538;12.146;2023-03-01T06:45:06;1.50;94.80
4090;DHT22;2059;48.538;12.146;2023-03-01T06:50:11;1.70;94.30
4090;DHT22;2059;48.538;12.146;2023-03-01T06:55:13;1.60;94.20
4090;DHT22;2059;48.538;12.146;2023-03-01T07:00:16;1.60;94.50
4090;DHT22;2059;48.538;12.146;2023-03-01T07:05:19;1.80;94.10
4090;DHT22;2059;48.538;12.146;2023-03-01T07:10:21;2.00;94.00
4090;DHT22;2059;48.538;12.146;2023-03-01T07:15:23;2.10;93.90
4090;DHT22;2059;48.538;12.146;2023-03-01T07:20:27;2.50;93.80
4090;DHT22;2059;48.538;12.146;2023-03-01T07:25:29;2.60;93.70
4090;DHT22;2059;48.538;12.146;2023-03-01T07:30:31;2.90;92.90
4090;DHT22;2059;48.538;12.146;2023-03-01T07:35:34;3.40;92.40
4090;DHT22;2059;48.538;12.146;2023-03-01T07:40:36;3.30;92.30
4090;DHT22;2059;48.538;12.146;2023-03-01T07:45:38;3.70;91.40
4090;DHT22;2059;48.538;12.146;2023-03-01T07:50:41;3.70;91.40
4090;DHT22;2059;48.538;12.146;2023-03-01T07:55:43;3.70;91.20
4090;DHT22;2059;48.538;12.146;2023-03-01T08:00:45;3.30;91.30
4090;DHT22;2059;48.538;12.146;2023-03-01T08:05:48;3.50;91.60
4090;DHT22;2059;48.538;12.146;2023-03-01T08:10:50;3.90;91.40
4090;DHT22;2059;48.538;12.146;2023-03-01T08:15:52;4.10;90.70
4090;DHT22;2059;48.538;12.146;2023-03-01T08:20:55;4.10;90.70
4090;DHT22;2059;48.538;12.146;2023-03-01T08:26:04;4.10;90.00
4090;DHT22;2059;48.538;12.146;2023-03-01T08:31:14;4.30;90.00
4090;DHT22;2059;48.538;12.146;2023-03-01T08:36:18;4.40;88.50
4090;DHT22;2059;48.538;12.146;2023-03-01T08:41:21;4.50;88.10
4090;DHT22;2059;48.538;12.146;2023-03-01T08:46:23;4.80;88.10
4090;DHT22;2059;48.538;12.146;2023-03-01T08:51:26;5.10;85.60
4090;DHT22;2059;48.538;12.146;2023-03-01T08:56:29;5.60;85.90
4090;DHT22;2059;48.538;12.146;2023-03-01T09:01:31;5.60;82.90
4090;DHT22;2059;48.538;12.146;2023-03-01T09:06:34;6.20;80.80
4090;DHT22;2059;48.538;12.146;2023-03-01T09:11:36;6.40;80.90
4090;DHT22;2059;48.538;12.146;2023-03-01T09:16:38;6.10;80.80
4090;DHT22;2059;48.538;12.146;2023-03-01T09:21:42;6.00;81.20
4090;DHT22;2059;48.538;12.146;2023-03-01T09:26:56;6.20;80.60
4090;DHT22;2059;48.538;12.146;2023-03-01T09:31:58;6.10;81.10
4090;DHT22;2059;48.538;12.146;2023-03-01T09:37:02;6.10;81.00
4090;DHT22;2059;48.538;12.146;2023-03-01T09:42:04;6.20;80.70
4090;DHT22;2059;48.538;12.146;2023-03-01T09:47:09;5.90;81.60
4090;DHT22;2059;48.538;12.146;2023-03-01T09:52:21;6.20;81.50
4090;DHT22;2059;48.538;12.146;2023-03-01T09:57:30;6.30;80.70
4090;DHT22;2059;48.538;12.146;2023-03-01T10:02:41;6.50;80.50
4090;DHT22;2059;48.538;12.146;2023-03-01T10:07:52;7.00;80.20
4090;DHT22;2059;48.538;12.146;2023-03-01T10:12:56;7.60;79.30
4090;DHT22;2059;48.538;12.146;2023-03-01T10:18:02;7.70;78.30
4090;DHT22;2059;48.538;12.146;2023-03-01T10:23:09;6.80;79.20
4090;DHT22;2059;48.538;12.146;2023-03-01T10:28:17;6.90;79.80
4090;DHT22;2059;48.538;12.146;2023-03-01T10:33:22;7.60;78.80
4090;DHT22;2059;48.538;12.146;2023-03-01T10:38:26;7.90;77.50
4090;DHT22;2059;48.538;12.146;2023-03-01T10:43:40;7.90;78.00
4090;DHT22;2059;48.538;12.146;2023-03-01T10:48:44;8.00;77.80
4090;DHT22;2059;48.538;12.146;2023-03-01T10:53:49;8.30;78.90
4090;DHT22;2059;48.538;12.146;2023-03-01T10:59:00;8.60;76.70
4090;DHT22;2059;48.538;12.146;2023-03-01T11:04:11;8.90;77.10
4090;DHT22;2059;48.538;12.146;2023-03-01T11:09:16;8.40;77.50
4090;DHT22;2059;48.538;12.146;2023-03-01T11:14:22;8.60;76.40
4090;DHT22;2059;48.538;12.146;2023-03-01T11:19:24;9.40;75.40
4090;DHT22;2059;48.538;12.146;2023-03-01T11:24:34;9.40;75.70
4090;DHT22;2059;48.538;12.146;2023-03-01T11:29:41;9.10;75.40
4090;DHT22;2059;48.538;12.146;2023-03-01T11:34:48;9.20;76.60
4090;DHT22;2059;48.538;12.146;2023-03-01T11:39:57;9.50;75.20
4090;DHT22;2059;48.538;12.146;2023-03-01T11:45:05;9.30;76.40
4090;DHT22;2059;48.538;12.146;2023-03-01T11:50:28;9.40;76.20
4090;DHT22;2059;48.538;12.146;2023-03-01T11:55:51;9.70;76.00
4090;DHT22;2059;48.538;12.146;2023-03-01T12:01:16;10.10;75.30
4090;DHT22;2059;48.538;12.146;2023-03-01T12:06:38;10.30;73.50
4090;DHT22;2059;48.538;12.146;2023-03-01T12:11:56;10.20;73.70
4090;DHT22;2059;48.538;12.146;2023-03-01T12:17:13;10.00;73.40
4090;DHT22;2059;48.538;12.146;2023-03-01T12:22:25;10.30;82.90
4090;DHT22;2059;48.538;12.146;2023-03-01T12:27:42;10.70;76.90
4090;DHT22;2059;48.538;12.146;2023-03-01T12:32:56;10.80;75.00
4090;DHT22;2059;48.538;12.146;2023-03-01T12:38:15;10.70;75.50
4090;DHT22;2059;48.538;12.146;2023-03-01T12:43:32;10.60;74.80
4090;DHT22;2059;48.538;12.146;2023-03-01T12:48:46;10.40;74.70
4090;DHT22;2059;48.538;12.146;2023-03-01T12:53:50;10.70;74.60
4090;DHT22;2059;48.538;12.146;2023-03-01T12:59:01;10.60;75.20
4090;DHT22;2059;48.538;12.146;2023-03-01T13:04:13;10.60;74.30
4090;DHT22;2059;48.538;12.146;2023-03-01T13:09:22;10.50;75.80
4090;DHT22;2059;48.538;12.146;2023-03-01T13:14:45;11.00;75.30
4090;DHT22;2059;48.538;12.146;2023-03-01T13:19:56;11.40;74.80
4090;DHT22;2059;48.538;12.146;2023-03-01T13:25:11;11.50;73.90
4090;DHT22;2059;48.538;12.146;2023-03-01T13:30:39;11.50;74.40
4090;DHT22;2059;48.538;12.146;2023-03-01T13:35:43;10.90;74.90
4090;DHT22;2059;48.538;12.146;2023-03-01T13:40:59;10.90;75.60
4090;DHT22;2059;48.538;12.146;2023-03-01T13:46:09;11.00;75.00
4090;DHT22;2059;48.538;12.146;2023-03-01T13:51:12;10.70;75.30
4090;DHT22;2059;48.538;12.146;2023-03-01T13:56:18;10.60;75.80
4090;DHT22;2059;48.538;12.146;2023-03-01T14:01:25;10.50;76.70
4090;DHT22;2059;48.538;12.146;2023-03-01T14:06:28;10.50;77.20
4090;DHT22;2059;48.538;12.146;2023-03-01T14:11:52;10.70;76.50
4090;DHT22;2059;48.538;12.146;2023-03-01T14:17:05;10.60;77.00
4090;DHT22;2059;48.538;12.146;2023-03-01T14:22:16;10.50;77.50
4090;DHT22;2059;48.538;12.146;2023-03-01T14:27:19;10.40;78.50
4090;DHT22;2059;48.538;12.146;2023-03-01T14:32:25;10.50;77.90
4090;DHT22;2059;48.538;12.146;2023-03-01T14:37:29;10.50;78.10
4090;DHT22;2059;48.538;12.146;2023-03-01T14:42:35;10.60;78.40
4090;DHT22;2059;48.538;12.146;2023-03-01T14:47:38;10.40;79.20
4090;DHT22;2059;48.538;12.146;2023-03-01T14:52:42;10.60;79.70
4090;DHT22;2059;48.538;12.146;2023-03-01T14:57:48;10.50;79.80
4090;DHT22;2059;48.538;12.146;2023-03-01T15:02:52;10.20;80.70
4090;DHT22;2059;48.538;12.146;2023-03-01T15:07:55;10.30;80.80
4090;DHT22;2059;48.538;12.146;2023-03-01T15:13:10;10.40;80.60
4090;DHT22;2059;48.538;12.146;2023-03-01T15:18:17;10.70;80.70
4090;DHT22;2059;48.538;12.146;2023-03-01T15:23:24;10.80;80.20
4090;DHT22;2059;48.538;12.146;2023-03-01T15:28:29;10.70;80.90
4090;DHT22;2059;48.538;12.146;2023-03-01T15:33:36;11.00;80.30
4090;DHT22;2059;48.538;12.146;2023-03-01T15:38:51;11.50;78.90
4090;DHT22;2059;48.538;12.146;2023-03-01T15:43:54;11.50;78.50
4090;DHT22;2059;48.538;12.146;2023-03-01T15:49:00;11.00;78.70
4090;DHT22;2059;48.538;12.146;2023-03-01T15:54:05;10.80;79.90
4090;DHT22;2059;48.538;12.146;2023-03-01T15:59:10;11.90;78.30
4090;DHT22;2059;48.538;12.146;2023-03-01T16:04:17;12.40;77.40
4090;DHT22;2059;48.538;12.146;2023-03-01T16:09:23;13.30;75.40
4090;DHT22;2059;48.538;12.146;2023-03-01T16:14:25;12.30;75.70
4090;DHT22;2059;48.538;12.146;2023-03-01T16:19:28;12.10;76.30
4090;DHT22;2059;48.538;12.146;2023-03-01T16:24:30;11.70;77.10
4090;DHT22;2059;48.538;12.146;2023-03-01T16:29:32;11.10;78.50
4090;DHT22;2059;48.538;12.146;2023-03-01T16:34:35;10.70;79.50
4090;DHT22;2059;48.538;12.146;2023-03-01T16:39:38;9.70;82.10
4090;DHT22;2059;48.538;12.146;2023-03-01T16:44:40;9.10;84.40
4090;DHT22;2059;48.538;12.146;2023-03-01T16:49:43;8.90;85.40
4090;DHT22;2059;48.538;12.146;2023-03-01T16:54:45;8.60;86.20
4090;DHT22;2059;48.538;12.146;2023-03-01T16:59:46;8.60;86.50
4090;DHT22;2059;48.538;12.146;2023-03-01T17:04:53;8.50;86.90
4090;DHT22;2059;48.538;12.146;2023-03-01T17:09:55;8.30;88.30
4090;DHT22;2059;48.538;12.146;2023-03-01T17:14:56;8.10;88.50
4090;DHT22;2059;48.538;12.146;2023-03-01T17:19:59;8.10;89.10
4090;DHT22;2059;48.538;12.146;2023-03-01T17:25:01;7.90;89.50
4090;DHT22;2059;48.538;12.146;2023-03-01T17:30:04;7.80;90.00
4090;DHT22;2059;48.538;12.146;2023-03-01T17:35:09;7.70;90.10
4090;DHT22;2059;48.538;12.146;2023-03-01T17:40:12;7.70;90.40
4090;DHT22;2059;48.538;12.146;2023-03-01T17:45:14;7.70;90.60
4090;DHT22;2059;48.538;12.146;2023-03-01T17:50:17;7.60;90.70
4090;DHT22;2059;48.538;12.146;2023-03-01T17:55:19;7.60;90.90
4090;DHT22;2059;48.538;12.146;2023-03-01T18:00:22;7.40;90.80
4090;DHT22;2059;48.538;12.146;2023-03-01T18:05:25;7.40;91.20
4090;DHT22;2059;48.538;12.146;2023-03-01T18:10:27;7.40;91.30
4090;DHT22;2059;48.538;12.146;2023-03-01T18:15:29;7.40;91.00
4090;DHT22;2059;48.538;12.146;2023-03-01T18:20:33;7.30;91.20
4090;DHT22;2059;48.538;12.146;2023-03-01T18:25:38;7.20;91.30
4090;DHT22;2059;48.538;12.146;2023-03-01T18:30:40;7.30;91.20
4090;DHT22;2059;48.538;12.146;2023-03-01T18:35:43;7.30;91.10
4090;DHT22;2059;48.538;12.146;2023-03-01T18:40:45;7.30;91.00
4090;DHT22;2059;48.538;12.146;2023-03-01T18:45:47;7.20;91.00
4090;DHT22;2059;48.538;12.146;2023-03-01T18:50:50;7.10;91.20
4090;DHT22;2059;48.538;12.146;2023-03-01T18:55:52;7.10;91.40
4090;DHT22;2059;48.538;12.146;2023-03-01T19:00:59;6.80;91.60
4090;DHT22;2059;48.538;12.146;2023-03-01T19:06:05;6.90;91.50
4090;DHT22;2059;48.538;12.146;2023-03-01T19:11:07;6.70;91.80
4090;DHT22;2059;48.538;12.146;2023-03-01T19:16:11;6.80;91.70
4090;DHT22;2059;48.538;12.146;2023-03-01T19:21:14;6.70;91.80
4090;DHT22;2059;48.538;12.146;2023-03-01T19:26:19;6.60;92.00
4090;DHT22;2059;48.538;12.146;2023-03-01T19:31:23;6.60;92.10
4090;DHT22;2059;48.538;12.146;2023-03-01T19:36:26;6.50;92.20
4090;DHT22;2059;48.538;12.146;2023-03-01T19:41:32;6.50;92.30
4090;DHT22;2059;48.538;12.146;2023-03-01T19:46:34;6.50;92.40
4090;DHT22;2059;48.538;12.146;2023-03-01T19:51:38;6.40;92.70
4090;DHT22;2059;48.538;12.146;2023-03-01T19:56:39;6.30;92.80
4090;DHT22;2059;48.538;12.146;2023-03-01T20:01:41;6.20;92.90
4090;DHT22;2059;48.538;12.146;2023-03-01T20:06:45;6.00;93.00
4090;DHT22;2059;48.538;12.146;2023-03-01T20:11:48;5.90;93.20
4090;DHT22;2059;48.538;12.146;2023-03-01T20:16:50;5.60;93.50
4090;DHT22;2059;48.538;12.146;2023-03-01T20:21:53;5.80;93.40
4090;DHT22;2059;48.538;12.146;2023-03-01T20:26:55;5.70;93.40
4090;DHT22;2059;48.538;12.146;2023-03-01T20:31:57;5.70;93.30
4090;DHT22;2059;48.538;12.146;2023-03-01T20:37:00;5.50;93.60
4090;DHT22;2059;48.538;12.146;2023-03-01T20:42:02;5.40;93.50
4090;DHT22;2059;48.538;12.146;2023-03-01T20:47:04;5.40;93.60
4090;DHT22;2059;48.538;12.146;2023-03-01T20:52:07;5.60;93.60
4090;DHT22;2059;48.538;12.146;2023-03-01T20:57:09;5.50;93.50
4090;DHT22;2059;48.538;12.146;2023-03-01T21:02:11;5.50;93.70
4090;DHT22;2059;48.538;12.146;2023-03-01T21:07:14;5.30;94.00
4090;DHT22;2059;48.538;12.146;2023-03-01T21:12:15;5.10;94.40
4090;DHT22;2059;48.538;12.146;2023-03-01T21:17:18;5.20;94.40
4090;DHT22;2059;48.538;12.146;2023-03-01T21:22:22;5.10;94.50
4090;DHT22;2059;48.538;12.146;2023-03-01T21:27:24;5.00;94.60
4090;DHT22;2059;48.538;12.146;2023-03-01T21:32:25;4.90;94.90
4090;DHT22;2059;48.538;12.146;2023-03-01T21:37:28;4.80;95.20
4090;DHT22;2059;48.538;12.146;2023-03-01T21:42:30;4.80;95.30
4090;DHT22;2059;48.538;12.146;2023-03-01T21:47:34;4.80;95.40
4090;DHT22;2059;48.538;12.146;2023-03-01T21:52:37;4.80;95.30
4090;DHT22;2059;48.538;12.146;2023-03-01T21:57:39;4.60;95.30
4090;DHT22;2059;48.538;12.146;2023-03-01T22:02:43;4.70;95.40
4090;DHT22;2059;48.538;12.146;2023-03-01T22:07:46;4.70;95.30
4090;DHT22;2059;48.538;12.146;2023-03-01T22:12:48;4.60;95.30
4090;DHT22;2059;48.538;12.146;2023-03-01T22:17:50;4.50;95.50
4090;DHT22;2059;48.538;12.146;2023-03-01T22:22:53;4.50;95.40
4090;DHT22;2059;48.538;12.146;2023-03-01T22:27:55;4.60;95.30
4090;DHT22;2059;48.538;12.146;2023-03-01T22:32:57;4.60;95.40
4090;DHT22;2059;48.538;12.146;2023-03-01T22:38:00;4.20;95.80
4090;DHT22;2059;48.538;12.146;2023-03-01T22:43:02;4.30;95.80
4090;DHT22;2059;48.538;12.146;2023-03-01T22:48:04;4.30;95.70
4090;DHT22;2059;48.538;12.146;2023-03-01T22:53:07;4.10;95.80
4090;DHT22;2059;48.538;12.146;2023-03-01T22:58:09;4.20;95.90
4090;DHT22;2059;48.538;12.146;2023-03-01T23:03:11;4.40;95.60
4090;DHT22;2059;48.538;12.146;2023-03-01T23:08:14;4.40;95.60
4090;DHT22;2059;48.538;12.146;2023-03-01T23:13:16;4.50;95.40
4090;DHT22;2059;48.538;12.146;2023-03-01T23:18:17;4.30;95.60
4090;DHT22;2059;48.538;12.146;2023-03-01T23:23:21;4.10;95.80
4090;DHT22;2059;48.538;12.146;2023-03-01T23:28:23;4.20;95.70
4090;DHT22;2059;48.538;12.146;2023-03-01T23:33:26;4.20;95.80
4090;DHT22;2059;48.538;12.146;2023-03-01T23:38:29;4.10;96.00
4090;DHT22;2059;48.538;12.146;2023-03-01T23:43:31;4.00;96.20
4090;DHT22;2059;48.538;12.146;2023-03-01T23:48:33;3.80;96.10
4090;DHT22;2059;48.538;12.146;2023-03-01T23:53:39;3.80;96.10
4090;DHT22;2059;48.538;12.146;2023-03-01T23:58:42;4.20;95.80
